Time;durP1;ratioP1;P1;durP2;ratioP2;P2;SDS_P1;SDS_P2;PMS_P1;PMS_P2;Temp;Humidity;BMP_temperature;BMP_pressure;BME280_temperature;BME280_humidity;BME280_pressure;Samples;Min_cycle;Max_cycle;Signal;HPM_P1;HPM_P2
2021/07/30 00:04:36;;;;;;;45.03;41.33;;;;;;;17.22;100.00;100736.81;1972053;73;31437;-75
2021/07/30 00:10:01;;;;;;;46.17;42.40;;;;;;;17.27;100.00;100741.69;1972013;73;33033;-73
2021/07/30 00:15:26;;;;;;;46.70;42.77;;;;;;;17.28;100.00;100719.45;1972060;73;33524;-71
2021/07/30 00:20:50;;;;;;;46.80;42.90;;;;;;;17.23;100.00;100712.63;1965631;73;30979;-72
2021/07/30 00:26:34;;;;;;;46.63;42.57;;;;;;;17.20;100.00;100706.26;2015988;71;30964;-72
2021/07/30 00:31:59;;;;;;;45.90;41.93;;;;;;;17.15;100.00;100707.03;1972165;73;33399;-71
2021/07/30 00:37:43;;;;;;;45.87;41.63;;;;;;;17.05;100.00;100699.77;2010627;71;30939;-73
2021/07/30 00:43:08;;;;;;;46.97;42.87;;;;;;;17.01;100.00;100710.02;1971922;73;30984;-72
2021/07/30 00:48:34;;;;;;;48.20;44.07;;;;;;;16.70;100.00;100715.80;1972159;73;31446;-71
2021/07/30 00:53:59;;;;;;;49.47;45.23;;;;;;;16.69;100.00;100719.75;1971939;73;31091;-71
2021/07/30 00:59:25;;;;;;;49.53;45.00;;;;;;;16.45;100.00;100707.33;1972128;72;31015;-72
2021/07/30 01:04:49;;;;;;;48.37;43.83;;;;;;;16.22;100.00;100699.05;1972164;73;31451;-72
2021/07/30 01:10:14;;;;;;;50.57;46.03;;;;;;;16.18;100.00;100711.23;1972102;72;33488;-72
2021/07/30 01:15:38;;;;;;;49.70;45.20;;;;;;;16.06;100.00;100700.66;1972117;73;32901;-72
2021/07/30 01:21:11;;;;;;;50.00;45.23;;;;;;;15.95;100.00;100679.72;1963165;73;31011;-72
2021/07/30 01:26:36;;;;;;;50.53;45.93;;;;;;;16.01;100.00;100671.39;1972144;73;32971;-72
2021/07/30 01:32:00;;;;;;;48.90;44.27;;;;;;;15.88;100.00;100672.34;1972118;72;33429;-72
2021/07/30 01:37:26;;;;;;;47.33;43.07;;;;;;;15.82;100.00;100667.48;1972112;73;33015;-72
2021/07/30 01:42:52;;;;;;;48.80;44.43;;;;;;;15.82;100.00;100659.08;1971844;73;32997;-72
2021/07/30 01:48:18;;;;;;;48.03;43.67;;;;;;;15.85;100.00;100644.42;1972161;73;32985;-72
2021/07/30 01:53:43;;;;;;;48.83;44.07;;;;;;;15.94;100.00;100634.63;1971845;73;32930;-72
2021/07/30 01:59:07;;;;;;;50.63;46.30;;;;;;;15.96;100.00;100620.31;1972108;73;32981;-74
2021/07/30 02:04:31;;;;;;;48.70;44.17;;;;;;;15.87;100.00;100600.09;1972079;73;33432;-72
2021/07/30 02:09:59;;;;;;;50.93;46.40;;;;;;;15.90;100.00;100590.22;1971891;73;33024;-72
2021/07/30 02:15:24;;;;;;;48.77;44.57;;;;;;;15.98;100.00;100559.16;1972140;73;33384;-72
2021/07/30 02:20:48;;;;;;;46.47;42.27;;;;;;;15.86;100.00;100569.63;1966102;73;32979;-72
2021/07/30 02:26:13;;;;;;;48.90;44.13;;;;;;;15.88;100.00;100554.12;1972017;73;33437;-75
2021/07/30 02:31:37;;;;;;;48.53;44.20;;;;;;;15.81;100.00;100551.56;1972127;73;33442;-75
2021/07/30 02:37:05;;;;;;;45.50;41.30;;;;;;;15.85;100.00;100537.16;1971918;73;32933;-72
2021/07/30 02:42:30;;;;;;;47.03;42.83;;;;;;;15.73;100.00;100536.41;1971908;73;32938;-72
2021/07/30 02:48:00;;;;;;;47.47;43.20;;;;;;;15.85;100.00;100529.58;1971927;73;32961;-72
2021/07/30 02:53:24;;;;;;;45.47;41.57;;;;;;;15.84;100.00;100525.13;1972011;73;33506;-75
2021/07/30 02:58:49;;;;;;;45.07;41.00;;;;;;;15.87;100.00;100518.06;1971847;73;32916;-72
2021/07/30 03:04:35;;;;;;;48.93;44.33;;;;;;;15.96;100.00;100497.84;2013309;71;33326;-73
2021/07/30 03:10:08;;;;;;;47.27;43.20;;;;;;;15.92;100.00;100487.89;1971858;73;33085;-72
2021/07/30 03:15:32;;;;;;;45.97;42.13;;;;;;;15.86;100.00;100483.63;1972119;73;32936;-72
2021/07/30 03:20:56;;;;;;;46.97;42.73;;;;;;;16.02;100.00;100484.51;1964757;73;33399;-72
2021/07/30 03:26:21;;;;;;;47.00;43.07;;;;;;;15.96;100.00;100468.44;1971898;72;33040;-72
2021/07/30 03:31:47;;;;;;;46.70;42.50;;;;;;;16.13;100.00;100454.41;1971986;73;33413;-75
2021/07/30 03:37:12;;;;;;;46.70;42.60;;;;;;;16.11;100.00;100439.92;1971867;73;32911;-75
2021/07/30 03:42:37;;;;;;;46.30;42.53;;;;;;;16.10;100.00;100431.27;1971820;73;33094;-75
2021/07/30 03:48:03;;;;;;;46.17;42.17;;;;;;;16.14;100.00;100422.44;1971923;73;32962;-76
2021/07/30 03:53:28;;;;;;;48.33;44.27;;;;;;;16.11;100.00;100411.08;1971846;73;32959;-72
2021/07/30 03:59:12;;;;;;;44.07;40.47;;;;;;;16.15;100.00;100395.25;2002980;71;32846;-72
2021/07/30 04:04:38;;;;;;;44.20;40.73;;;;;;;16.20;100.00;100390.30;1971903;73;32944;-75
2021/07/30 04:10:03;;;;;;;44.50;41.10;;;;;;;16.25;100.00;100387.89;1972110;73;33412;-72
2021/07/30 04:15:34;;;;;;;44.40;40.57;;;;;;;16.37;100.00;100374.00;1971857;73;32974;-72
2021/07/30 04:20:59;;;;;;;43.27;40.07;;;;;;;16.36;100.00;100361.96;1971857;73;33362;-74
2021/07/30 04:26:24;;;;;;;42.43;39.23;;;;;;;16.44;100.00;100360.27;1972075;73;33604;-75
2021/07/30 04:31:49;;;;;;;41.63;38.53;;;;;;;16.53;100.00;100356.85;1972084;73;33518;-76
2021/07/30 04:37:13;;;;;;;42.80;39.37;;;;;;;16.52;100.00;100366.99;1972007;73;33005;-76
2021/07/30 04:42:38;;;;;;;40.83;37.73;;;;;;;16.54;100.00;100350.09;1971998;73;32917;-76
2021/07/30 04:48:07;;;;;;;42.17;39.07;;;;;;;16.57;100.00;100355.05;1972170;73;33403;-75
2021/07/30 04:53:31;;;;;;;41.77;38.77;;;;;;;16.59;100.00;100337.33;1972012;73;33478;-76
2021/07/30 04:58:56;;;;;;;43.87;40.77;;;;;;;16.62;100.00;100328.80;1972007;72;33516;-74
2021/07/30 05:04:20;;;;;;;42.77;39.63;;;;;;;16.55;100.00;100325.69;1971926;73;32988;-75
2021/07/30 05:09:44;;;;;;;43.27;39.87;;;;;;;16.51;100.00;100327.52;1972119;73;32986;-76
2021/07/30 05:15:28;;;;;;;44.63;40.87;;;;;;;16.27;100.00;100330.34;2016015;71;32842;-75
2021/07/30 05:20:53;;;;;;;42.00;38.60;;;;;;;16.25;100.00;100331.84;1965337;73;33492;-73
2021/07/30 05:26:17;;;;;;;43.20;39.50;;;;;;;16.25;100.00;100334.65;1972075;73;33388;-75
2021/07/30 05:31:41;;;;;;;44.17;40.47;;;;;;;16.26;100.00;100332.89;1972125;72;33016;-71
2021/07/30 05:37:06;;;;;;;43.73;39.67;;;;;;;15.98;100.00;100333.66;1971856;73;33009;-75
2021/07/30 05:42:30;;;;;;;42.53;38.43;;;;;;;15.80;100.00;100328.09;1971855;73;33055;-75
2021/07/30 05:47:55;;;;;;;40.83;37.03;;;;;;;15.84;100.00;100322.07;1972026;73;33482;-75
2021/07/30 05:53:20;;;;;;;43.57;39.53;;;;;;;15.88;100.00;100313.81;1971988;73;33472;-75
2021/07/30 05:58:44;;;;;;;44.30;40.13;;;;;;;15.84;100.00;100286.23;1971849;72;32920;-75
2021/07/30 06:04:09;;;;;;;44.10;39.60;;;;;;;15.87;100.00;100280.78;1971864;73;32912;-75
2021/07/30 06:09:34;;;;;;;44.63;40.17;;;;;;;15.93;100.00;100277.23;1972089;73;33095;-75
2021/07/30 06:15:00;;;;;;;41.40;37.53;;;;;;;16.30;100.00;100271.41;1971781;73;33001;-75
2021/07/30 06:20:25;;;;;;;42.30;38.17;;;;;;;16.42;100.00;100263.67;1971948;73;32883;-75
2021/07/30 06:25:53;;;;;;;42.37;38.03;;;;;;;16.44;100.00;100255.72;1972094;73;33503;-75
2021/07/30 06:31:20;;;;;;;42.87;38.57;;;;;;;16.43;100.00;100240.88;1971919;73;32970;-73
2021/07/30 06:36:44;;;;;;;41.70;37.53;;;;;;;16.39;100.00;100222.52;1971900;73;33006;-72
2021/07/30 06:42:09;;;;;;;42.33;38.07;;;;;;;16.44;100.00;100211.70;1938355;74;33047;-75
2021/07/30 06:47:35;;;;;;;41.40;37.30;;;;;;;16.54;100.00;100207.11;1971869;73;32952;-72
2021/07/30 06:53:02;;;;;;;41.67;37.60;;;;;;;16.52;100.00;100181.95;1972119;73;33480;-71
2021/07/30 06:58:27;;;;;;;43.50;39.17;;;;;;;16.43;100.00;100172.81;1971888;73;32924;-72
2021/07/30 07:03:53;;;;;;;43.83;39.73;;;;;;;16.27;100.00;100176.78;1971849;73;32994;-71
2021/07/30 07:09:18;;;;;;;45.87;41.33;;;;;;;16.25;100.00;100171.53;1972154;73;33406;-72
2021/07/30 07:14:42;;;;;;;49.73;45.23;;;;;;;16.08;100.00;100166.61;1971875;72;32906;-71
2021/07/30 07:20:09;;;;;;;47.53;42.93;;;;;;;16.04;100.00;100163.67;1971922;73;32985;-71
2021/07/30 07:25:34;;;;;;;47.93;43.63;;;;;;;16.16;100.00;100157.33;1972039;72;33501;-71
2021/07/30 07:30:59;;;;;;;47.70;43.27;;;;;;;16.34;100.00;100147.04;1972077;73;33402;-74
2021/07/30 07:36:24;;;;;;;45.23;40.93;;;;;;;16.48;100.00;100130.53;1972055;73;33469;-73
2021/07/30 07:41:49;;;;;;;44.20;39.40;;;;;;;16.63;100.00;100125.76;1971904;73;32911;-73
2021/07/30 07:47:13;;;;;;;43.17;38.70;;;;;;;16.70;100.00;100114.22;1971939;73;33094;-73
2021/07/30 07:52:38;;;;;;;42.73;38.53;;;;;;;16.62;100.00;100113.72;1971839;73;33006;-72
2021/07/30 07:58:04;;;;;;;43.87;39.43;;;;;;;16.43;100.00;100116.14;1971866;73;32938;-71
2021/07/30 08:03:32;;;;;;;47.60;43.27;;;;;;;16.35;100.00;100101.05;1972125;73;32916;-72
2021/07/30 08:08:56;;;;;;;45.80;41.63;;;;;;;16.40;100.00;100095.81;1972164;72;32998;-72
2021/07/30 08:14:24;;;;;;;42.67;38.80;;;;;;;16.45;100.00;100097.59;1971877;73;33000;-72
2021/07/30 08:19:50;;;;;;;43.87;39.73;;;;;;;16.58;100.00;100097.34;1971908;73;33012;-73
2021/07/30 08:25:15;;;;;;;44.70;40.50;;;;;;;16.63;100.00;100082.30;1972004;73;33088;-74
2021/07/30 08:30:41;;;;;;;43.90;39.83;;;;;;;16.61;100.00;100074.22;1972127;73;33519;-72
2021/07/30 08:36:08;;;;;;;41.60;37.60;;;;;;;16.58;100.00;100072.69;1971879;73;32904;-73
2021/07/30 08:41:38;;;;;;;55.37;50.67;;;;;;;17.05;100.00;100059.16;1971869;73;32913;-72
2021/07/30 08:47:05;;;;;;;40.97;36.97;;;;;;;17.81;100.00;100059.92;1972162;73;33508;-74
2021/07/30 08:52:34;;;;;;;39.67;36.03;;;;;;;17.60;100.00;100034.78;1972111;73;31445;-74
2021/07/30 08:58:00;;;;;;;41.60;37.40;;;;;;;17.61;100.00;100038.66;1971928;73;30951;-76
2021/07/30 09:03:26;;;;;;;43.47;38.97;;;;;;;17.58;100.00;100010.47;1972153;73;33487;-73
2021/07/30 09:09:08;;;;;;;44.23;39.87;;;;;;;17.54;100.00;100010.29;1971980;73;31039;-73
2021/07/30 09:14:37;;;;;;;42.27;38.27;;;;;;;17.58;100.00;99993.61;1972116;73;33562;-73
2021/07/30 09:20:05;;;;;;;44.77;40.27;;;;;;;17.64;100.00;99980.95;1972080;73;31539;-72
2021/07/30 09:25:44;;;;;;;42.33;38.40;;;;;;;17.59;100.00;99982.59;1971883;73;31050;-73
2021/07/30 09:31:10;;;;;;;45.13;37.60;;;;;;;17.73;100.00;99969.00;1971992;73;31037;-73
2021/07/30 09:36:46;;;;;;;42.73;38.50;;;;;;;17.73;100.00;99962.80;1971841;73;33055;-74
2021/07/30 09:42:14;;;;;;;49.33;44.93;;;;;;;17.50;100.00;99952.41;1972063;73;30982;-74
2021/07/30 09:47:50;;;;;;;44.57;40.07;;;;;;;17.67;100.00;99959.98;1972170;73;30978;-73
2021/07/30 09:53:15;;;;;;;45.63;41.40;;;;;;;17.50;100.00;99964.44;1971899;73;31064;-74
2021/07/30 09:58:43;;;;;;;45.80;41.63;;;;;;;17.26;100.00;99951.25;1972068;73;33520;-74
2021/07/30 10:04:10;;;;;;;47.40;42.93;;;;;;;17.50;100.00;99958.03;1972090;73;32934;-73
2021/07/30 10:09:35;;;;;;;46.87;42.20;;;;;;;17.21;100.00;99965.52;1972020;73;31108;-74
2021/07/30 10:15:01;;;;;;;44.70;40.53;;;;;;;17.59;100.00;99955.91;1971928;73;32991;-74
2021/07/30 10:20:28;;;;;;;44.43;39.73;;;;;;;17.55;100.00;99945.13;1971242;71;31072;-74
2021/07/30 10:25:57;;;;;;;42.70;38.50;;;;;;;17.54;100.00;99937.90;1972005;73;33501;-76
2021/07/30 10:31:23;;;;;;;43.13;38.73;;;;;;;17.79;100.00;99933.89;1971880;73;33002;-74
2021/07/30 10:36:48;;;;;;;57.77;53.27;;;;;;;17.91;100.00;99926.81;1972044;73;31500;-77
2021/07/30 10:42:13;;;;;;;41.87;37.93;;;;;;;18.23;100.00;99910.85;1972123;73;33428;-74
2021/07/30 10:48:40;;;;;;;49.10;45.00;;;;;;;18.48;100.00;99905.93;1971966;73;30965;-75
2021/07/30 10:54:24;;;;;;;50.07;45.53;;;;;;;19.06;100.00;99884.52;1971848;73;31044;-72
2021/07/30 11:00:05;;;;;;;41.23;37.47;;;;;;;19.02;100.00;99858.30;1972161;73;31450;-74
2021/07/30 11:06:12;;;;;;;38.37;35.13;;;;;;;19.24;100.00;99830.05;1971891;73;31008;-75
2021/07/30 11:12:09;;;;;;;40.00;36.30;;;;;;;19.22;100.00;99823.36;1972141;73;30978;-75
2021/07/30 11:17:36;;;;;;;41.33;37.27;;;;;;;19.19;100.00;99805.81;1972129;73;31529;-76
2021/07/30 11:23:06;;;;;;;45.80;41.63;;;;;;;19.10;100.00;99782.68;2019522;71;30939;-75
2021/07/30 11:28:29;;;;;;;50.70;46.37;;;;;;;18.62;100.00;99818.54;1971865;73;31053;-75
2021/07/30 11:33:55;;;;;;;49.80;45.87;;;;;;;18.22;100.00;99862.04;1972135;73;31072;-74
2021/07/30 11:39:20;;;;;;;47.27;43.27;;;;;;;18.25;100.00;99848.66;1972008;73;30962;-74
2021/07/30 11:44:49;;;;;;;43.10;39.53;;;;;;;18.60;100.00;99855.25;1971860;73;30970;-74
2021/07/30 11:50:16;;;;;;;41.60;38.10;;;;;;;19.05;100.00;99838.67;1972093;73;31041;-74
2021/07/30 11:55:42;;;;;;;38.70;35.40;;;;;;;19.27;100.00;99823.67;1971832;73;31058;-74
2021/07/30 12:01:13;;;;;;;39.47;36.13;;;;;;;19.50;100.00;99826.86;1972035;72;31003;-77
2021/07/30 12:06:43;;;;;;;40.73;37.63;;;;;;;19.34;100.00;99826.05;1972098;73;31435;-75
2021/07/30 12:12:12;;;;;;;42.33;39.13;;;;;;;18.96;100.00;99849.30;1972058;73;33529;-75
2021/07/30 12:17:38;;;;;;;46.00;42.70;;;;;;;18.66;100.00;99869.25;1972172;73;33400;-75
2021/07/30 12:23:05;;;;;;;45.73;42.13;;;;;;;18.48;100.00;99886.25;1972004;73;31382;-75
2021/07/30 12:28:42;;;;;;;44.10;40.70;;;;;;;18.59;100.00;99866.27;1972233;72;31112;-76
2021/07/30 12:34:15;;;;;;;41.73;38.73;;;;;;;18.87;100.00;99887.28;1972054;73;31035;-80
2021/07/30 12:39:47;;;;;;;38.43;35.73;;;;;;;19.13;100.00;99890.90;1972153;72;31517;-77
2021/07/30 12:45:17;;;;;;;38.60;35.80;;;;;;;19.44;100.00;99888.88;1971883;73;31041;-74
2021/07/30 12:50:55;;;;;;;39.27;36.57;;;;;;;19.85;100.00;99883.73;1972116;73;31440;-75
2021/07/30 12:56:20;;;;;;;39.57;36.87;;;;;;;19.64;100.00;99867.78;1972131;73;31502;-74
2021/07/30 13:01:49;;;;;;;39.90;37.20;;;;;;;19.63;100.00;99873.19;1971939;72;31046;-74
2021/07/30 13:07:13;;;;;;;40.93;38.10;;;;;;;19.56;100.00;99889.33;1972189;72;31522;-76
2021/07/30 13:12:39;;;;;;;41.10;38.03;;;;;;;19.18;100.00;99894.84;1971940;73;31033;-74
2021/07/30 13:18:04;;;;;;;42.03;39.10;;;;;;;19.20;100.00;99904.58;1971908;73;31069;-74
2021/07/30 13:23:30;;;;;;;39.97;36.97;;;;;;;19.58;100.00;99910.09;1972090;73;31455;-74
2021/07/30 13:29:14;;;;;;;38.23;35.53;;;;;;;19.85;100.00;99902.84;2016319;71;30886;-76
2021/07/30 13:34:58;;;;;;;38.17;35.47;;;;;;;19.87;100.00;99915.98;1982700;70;31328;-73
2021/07/30 13:40:24;;;;;;;38.80;36.00;;;;;;;19.89;100.00;99913.62;1968438;71;31030;-79
2021/07/30 13:45:51;;;;;;;39.33;36.50;;;;;;;20.14;100.00;99917.55;1972173;73;30922;-71
2021/07/30 13:51:14;;;;;;;38.57;35.87;;;;;;;19.83;100.00;99924.95;1971942;73;30960;-75
2021/07/30 13:56:39;;;;;;;38.37;35.77;;;;;;;19.89;100.00;99933.35;1972126;73;31022;-74
2021/07/30 14:02:05;;;;;;;38.03;35.37;;;;;;;19.92;100.00;99942.47;1972121;73;31008;-75
2021/07/30 14:07:29;;;;;;;37.07;34.57;;;;;;;20.43;100.00;99933.86;1971944;72;31015;-71
2021/07/30 14:12:54;;;;;;;38.83;36.07;;;;;;;20.30;100.00;99953.55;1971947;73;31031;-72
2021/07/30 14:18:38;;;;;;;43.40;40.20;;;;;;;19.54;100.00;99985.49;2016160;71;30879;-73
2021/07/30 14:24:01;;;;;;;53.90;50.10;;;;;;;18.65;100.00;100020.33;1972125;73;31463;-70
2021/07/30 14:29:25;;;;;;;45.90;42.50;;;;;;;18.00;100.00;100046.09;1971949;73;31034;-72
2021/07/30 14:34:51;;;;;;;42.03;38.97;;;;;;;18.62;100.00;100049.77;1971973;73;30981;-75
2021/07/30 14:40:16;;;;;;;40.57;37.47;;;;;;;18.89;100.00;100054.56;1971962;73;31024;-74
2021/07/30 14:45:43;;;;;;;41.30;38.43;;;;;;;19.27;100.00;100070.05;1971967;73;31023;-74
2021/07/30 14:51:08;;;;;;;42.47;39.47;;;;;;;19.17;100.00;100072.01;1971859;73;30980;-71
2021/07/30 14:56:33;;;;;;;49.80;46.27;;;;;;;18.74;100.00;100102.38;1972097;73;30977;-74
2021/07/30 15:01:58;;;;;;;60.50;56.33;;;;;;;18.73;100.00;100110.58;1971896;73;30963;-79
2021/07/30 15:07:23;;;;;;;46.50;43.23;;;;;;;18.92;100.00;100124.20;1971973;73;30973;-73
2021/07/30 15:12:49;;;;;;;42.90;39.70;;;;;;;18.73;100.00;100133.91;1971948;73;30975;-76
2021/07/30 15:18:13;;;;;;;43.67;40.57;;;;;;;18.76;100.00;100149.23;1972223;73;31534;-70
2021/07/30 15:23:39;;;;;;;41.63;38.63;;;;;;;19.01;100.00;100147.38;1972173;73;31624;-71
2021/07/30 15:29:07;;;;;;;43.10;40.00;;;;;;;19.09;100.00;100156.83;1972258;72;31455;-73
2021/07/30 15:34:31;;;;;;;41.63;38.73;;;;;;;19.08;100.00;100172.91;1972037;73;30977;-75
2021/07/30 15:39:55;;;;;;;40.37;37.57;;;;;;;19.31;100.00;100190.63;1972157;73;30969;-74
2021/07/30 15:45:20;;;;;;;43.30;39.77;;;;;;;19.23;100.00;100193.02;1972057;73;30964;-72
2021/07/30 15:50:44;;;;;;;42.83;40.03;;;;;;;19.14;100.00;100203.62;1972182;73;31512;-73
2021/07/30 15:56:09;;;;;;;45.37;42.57;;;;;;;19.20;100.00;100212.88;1971954;73;31074;-74
2021/07/30 16:01:33;;;;;;;43.73;40.87;;;;;;;19.48;100.00;100217.92;1972004;73;31035;-73
2021/07/30 16:07:00;;;;;;;46.40;43.50;;;;;;;19.24;100.00;100230.69;1972162;73;31542;-71
2021/07/30 16:12:27;;;;;;;46.77;43.97;;;;;;;19.29;100.00;100226.80;1972135;73;31020;-71
2021/07/30 16:17:54;;;;;;;47.83;44.97;;;;;;;19.16;100.00;100242.10;1972072;73;30961;-71
2021/07/30 16:23:19;;;;;;;47.17;44.17;;;;;;;18.89;100.00;100250.73;1971947;73;31451;-72
2021/07/30 16:28:45;;;;;;;48.53;45.53;;;;;;;18.88;100.00;100264.57;1972173;73;31041;-70
2021/07/30 16:34:09;;;;;;;50.00;47.07;;;;;;;19.10;100.00;100276.13;1971926;73;31027;-68
2021/07/30 16:39:34;;;;;;;47.63;44.63;;;;;;;19.17;100.00;100279.73;1972128;73;33393;-69
2021/07/30 16:44:58;;;;;;;45.03;42.03;;;;;;;19.16;100.00;100295.59;1972177;73;31464;-72
2021/07/30 16:50:25;;;;;;;45.20;42.30;;;;;;;18.98;100.00;100333.05;1972094;73;31509;-69
2021/07/30 16:55:49;;;;;;;48.77;45.67;;;;;;;18.46;100.00;100336.55;1972154;73;31574;-71
2021/07/30 17:01:17;;;;;;;53.27;49.87;;;;;;;18.11;100.00;100335.32;1972238;73;30937;-70
2021/07/30 17:06:42;;;;;;;49.27;45.83;;;;;;;17.95;100.00;100358.23;1971851;73;30962;-69
2021/07/30 17:12:08;;;;;;;52.27;48.40;;;;;;;17.77;100.00;100360.39;1971917;73;31036;-72
2021/07/30 17:17:32;;;;;;;55.57;51.67;;;;;;;17.65;100.00;100367.38;1971914;73;33445;-72
2021/07/30 17:22:56;;;;;;;49.57;45.67;;;;;;;17.61;100.00;100378.48;1937123;74;33454;-71
2021/07/30 17:28:21;;;;;;;49.63;45.93;;;;;;;17.56;100.00;100391.88;1971779;73;30954;-72
2021/07/30 17:33:46;;;;;;;56.30;52.30;;;;;;;17.88;100.00;100400.97;1972016;73;33410;-74
2021/07/30 17:39:11;;;;;;;49.47;45.90;;;;;;;18.13;100.00;100399.06;1971893;73;30993;-69
2021/07/30 17:44:35;;;;;;;44.83;41.43;;;;;;;18.23;100.00;100400.00;1972003;72;30978;-71
2021/07/30 17:50:00;;;;;;;45.03;41.83;;;;;;;18.02;100.00;100406.27;1971832;73;31069;-74
2021/07/30 17:55:24;;;;;;;45.67;42.27;;;;;;;18.12;100.00;100424.11;1971866;73;30973;-73
2021/07/30 18:00:49;;;;;;;40.40;37.20;;;;;;;18.23;100.00;100425.30;1971990;73;31461;-78
2021/07/30 18:06:22;;;;;;;41.73;38.73;;;;;;;18.29;100.00;100435.17;1971952;73;31501;-72
2021/07/30 18:11:47;;;;;;;38.27;35.47;;;;;;;18.28;100.00;100439.73;1972066;73;31401;-73
2021/07/30 18:17:11;;;;;;;38.60;35.77;;;;;;;18.37;100.00;100446.09;1971812;73;31040;-72
2021/07/30 18:22:38;;;;;;;39.50;36.80;;;;;;;18.25;100.00;100460.11;1960144;71;31022;-74
2021/07/30 18:28:04;;;;;;;39.90;37.10;;;;;;;17.85;100.00;100470.47;1971836;73;30958;-77
2021/07/30 18:33:29;;;;;;;38.60;35.90;;;;;;;17.84;100.00;100482.87;1972196;73;30958;-76
2021/07/30 18:38:54;;;;;;;38.50;35.70;;;;;;;17.86;100.00;100490.39;1972006;73;31468;-75
2021/07/30 18:44:18;;;;;;;39.17;36.47;;;;;;;17.78;100.00;100502.52;1971948;73;33405;-73
2021/07/30 18:49:44;;;;;;;38.77;36.17;;;;;;;17.79;100.00;100508.39;1971941;73;33443;-75
2021/07/30 18:55:16;;;;;;;38.77;36.07;;;;;;;17.66;100.00;100512.28;1971828;73;30944;-73
2021/07/30 19:00:40;;;;;;;38.20;35.50;;;;;;;17.62;100.00;100526.19;1972195;73;30935;-75
2021/07/30 19:06:12;;;;;;;38.27;35.57;;;;;;;17.82;100.00;100528.77;1972158;73;30986;-77
2021/07/30 19:11:39;;;;;;;38.13;35.40;;;;;;;17.84;100.00;100532.04;1971911;73;30961;-76
2021/07/30 19:17:10;;;;;;;36.80;34.20;;;;;;;17.82;100.00;100537.20;1972189;73;31029;-76
2021/07/30 19:22:34;;;;;;;35.90;33.20;;;;;;;17.80;100.00;100550.75;1960361;71;30963;-77
2021/07/30 19:28:19;;;;;;;37.67;35.07;;;;;;;17.83;100.00;100557.11;2016412;71;30880;-76
2021/07/30 19:33:45;;;;;;;36.77;34.17;;;;;;;17.80;100.00;100559.17;1971962;73;33435;-71
2021/07/30 19:39:10;;;;;;;38.97;36.17;;;;;;;17.78;100.00;100565.73;1971931;73;31051;-74
2021/07/30 19:44:36;;;;;;;36.60;34.00;;;;;;;17.64;100.00;100574.98;1972201;73;30928;-75
2021/07/30 19:50:01;;;;;;;38.47;35.87;;;;;;;17.67;100.00;100572.31;1971928;73;31053;-77
2021/07/30 19:55:26;;;;;;;37.73;35.17;;;;;;;17.68;100.00;100586.61;1971811;73;30994;-76
2021/07/30 20:00:55;;;;;;;39.60;36.90;;;;;;;17.68;100.00;100586.61;1971840;73;31067;-75
2021/07/30 20:06:19;;;;;;;38.63;35.93;;;;;;;17.66;100.00;100595.97;1971836;73;31009;-75
2021/07/30 20:11:45;;;;;;;36.00;33.50;;;;;;;17.66;100.00;100597.38;1971756;73;33307;-71
2021/07/30 20:17:30;;;;;;;37.90;35.30;;;;;;;17.69;100.00;100610.73;1996298;71;30949;-76
2021/07/30 20:22:55;;;;;;;36.90;34.40;;;;;;;17.64;100.00;100608.69;1936977;74;31118;-78
2021/07/30 20:28:18;;;;;;;37.50;34.90;;;;;;;17.67;100.00;100616.46;1971946;73;31501;-70
2021/07/30 20:33:43;;;;;;;38.33;35.63;;;;;;;17.67;100.00;100632.70;1971871;73;30931;-76
2021/07/30 20:39:11;;;;;;;36.50;34.00;;;;;;;17.65;100.00;100632.23;1972384;73;33448;-75
2021/07/30 20:44:39;;;;;;;37.90;35.30;;;;;;;17.66;100.00;100642.32;1972040;73;31578;-71
2021/07/30 20:50:09;;;;;;;39.00;36.40;;;;;;;17.66;100.00;100642.32;1972248;73;30937;-77
2021/07/30 20:55:34;;;;;;;36.90;34.27;;;;;;;17.67;100.00;100641.13;1971862;73;31411;-75
2021/07/30 21:01:02;;;;;;;38.33;35.63;;;;;;;17.71;100.00;100642.10;1972408;73;31505;-75
2021/07/30 21:06:38;;;;;;;37.43;34.83;;;;;;;17.70;100.00;100638.25;1972068;73;31449;-72
2021/07/30 21:12:02;;;;;;;37.33;34.67;;;;;;;17.58;100.00;100643.77;1972062;72;33413;-75
2021/07/30 21:17:32;;;;;;;37.90;35.20;;;;;;;17.52;100.00;100638.05;1972037;72;33409;-73
2021/07/30 21:22:57;;;;;;;39.27;36.47;;;;;;;17.45;100.00;100652.62;1972363;73;33430;-76
2021/07/30 21:28:24;;;;;;;37.40;34.80;;;;;;;17.40;100.00;100658.99;1972195;73;30941;-74
2021/07/30 21:33:49;;;;;;;38.50;35.70;;;;;;;17.41;100.00;100655.86;1971833;73;30995;-72
2021/07/30 21:39:14;;;;;;;37.17;34.57;;;;;;;17.35;100.00;100664.20;1971793;73;32979;-72
2021/07/30 21:44:39;;;;;;;37.30;34.40;;;;;;;17.38;100.00;100672.53;1971819;73;32978;-70
2021/07/30 21:50:04;;;;;;;38.00;35.20;;;;;;;17.28;100.00;100684.36;1971797;73;30926;-77
2021/07/30 21:55:29;;;;;;;39.13;36.43;;;;;;;17.16;100.00;100685.63;1972424;73;33381;-76
2021/07/30 22:00:53;;;;;;;39.40;36.60;;;;;;;17.04;100.00;100686.89;1971959;73;33392;-76
2021/07/30 22:06:20;;;;;;;39.33;36.50;;;;;;;17.01;100.00;100689.55;1971943;73;33460;-74
2021/07/30 22:11:45;;;;;;;39.50;36.50;;;;;;;16.99;100.00;100688.46;1971842;73;30943;-75
2021/07/30 22:17:09;;;;;;;40.37;37.57;;;;;;;16.92;100.00;100706.96;1971761;73;33000;-75
2021/07/30 22:22:33;;;;;;;39.47;36.57;;;;;;;16.82;100.00;100716.53;1971752;73;31122;-76
2021/07/30 22:27:58;;;;;;;40.17;37.27;;;;;;;16.74;100.00;100721.00;1971943;73;33547;-76
2021/07/30 22:33:23;;;;;;;41.73;38.63;;;;;;;16.65;100.00;100721.56;1972158;73;30945;-75
2021/07/30 22:38:47;;;;;;;40.67;37.47;;;;;;;16.59;100.00;100732.71;1971880;73;33019;-72
2021/07/30 22:41:42;;;;;;;40.67;37.73;;;;;;;16.54;100.00;100741.81;1934692;74;24190;-76
2021/07/30 22:47:05;;;;;;;41.47;38.47;;;;;;;16.48;100.00;100736.11;1971927;73;33483;-74
2021/07/30 22:52:31;;;;;;;41.90;38.83;;;;;;;16.43;100.00;100746.10;1971698;73;33053;-72
2021/07/30 22:57:55;;;;;;;42.50;39.47;;;;;;;16.34;100.00;100740.48;1971935;73;31061;-76
2021/07/30 23:03:20;;;;;;;43.37;40.37;;;;;;;16.32;100.00;100746.40;1971664;73;33075;-75
2021/07/30 23:08:44;;;;;;;42.40;39.30;;;;;;;16.23;100.00;100751.72;1971800;73;32993;-76
2021/07/30 23:14:10;;;;;;;40.63;37.53;;;;;;;16.23;100.00;100756.76;1971852;73;33492;-76
2021/07/30 23:19:34;;;;;;;40.43;37.40;;;;;;;16.10;100.00;100761.08;1971808;73;32921;-72
2021/07/30 23:25:06;;;;;;;41.90;38.80;;;;;;;16.09;100.00;100763.05;1972291;72;33384;-75
2021/07/30 23:30:31;;;;;;;44.33;41.23;;;;;;;15.97;100.00;100776.02;1971809;73;33421;-76
2021/07/30 23:35:55;;;;;;;43.97;40.67;;;;;;;15.94;100.00;100776.11;1971892;73;32892;-76
2021/07/30 23:41:19;;;;;;;43.83;40.43;;;;;;;15.97;100.00;100773.22;1971851;73;33371;-72
2021/07/30 23:46:45;;;;;;;41.93;38.53;;;;;;;15.85;100.00;100784.47;1971711;73;30962;-76
2021/07/30 23:52:12;;;;;;;41.73;38.47;;;;;;;15.82;100.00;100789.89;1972126;72;33027;-75
2021/07/30 23:57:36;;;;;;;41.03;37.77;;;;;;;15.79;100.00;100790.52;1972405;73;32922;-75
